createdAt,value
2018-02-14T00:00:26.017Z,973.11
2018-02-14T00:01:25.936Z,973.06
2018-02-14T00:02:25.843Z,973.07
2018-02-14T00:03:25.769Z,973.07
2018-02-14T00:04:25.671Z,973.09
2018-02-14T00:05:25.597Z,973.04
2018-02-14T00:06:25.500Z,973.09
2018-02-14T00:07:25.421Z,973.10
2018-02-14T00:08:25.329Z,973.08
2018-02-14T00:09:25.246Z,973.03
2018-02-14T00:10:25.156Z,973.07
2018-02-14T00:11:25.076Z,973.05
2018-02-14T00:12:24.979Z,973.03
2018-02-14T00:13:24.902Z,973.05
2018-02-14T00:14:24.808Z,973.05
2018-02-14T00:15:24.727Z,973.05
2018-02-14T00:16:24.636Z,973.05
2018-02-14T00:17:24.558Z,973.05
2018-02-14T00:18:24.460Z,973.06
2018-02-14T00:19:24.383Z,973.07
2018-02-14T00:20:24.289Z,973.05
2018-02-14T00:21:24.211Z,973.05
2018-02-14T00:22:24.118Z,973.06
2018-02-14T00:23:24.042Z,973.09
2018-02-14T00:24:23.948Z,973.08
2018-02-14T00:25:23.865Z,973.10
2018-02-14T00:26:23.769Z,973.11
2018-02-14T00:27:23.693Z,973.12
2018-02-14T00:28:23.601Z,973.14
2018-02-14T00:29:23.522Z,973.12
2018-02-14T00:30:23.424Z,973.14
2018-02-14T00:31:23.357Z,973.12
2018-02-14T00:32:23.255Z,973.13
2018-02-14T00:33:23.174Z,973.13
2018-02-14T00:34:23.086Z,973.16
2018-02-14T00:35:23.005Z,973.18
2018-02-14T00:36:22.908Z,973.16
2018-02-14T00:37:22.828Z,973.18
2018-02-14T00:38:22.732Z,973.13
2018-02-14T00:39:22.650Z,973.20
2018-02-14T00:40:22.559Z,973.16
2018-02-14T00:41:22.488Z,973.20
2018-02-14T00:42:22.387Z,973.19
2018-02-14T00:43:22.310Z,973.25
2018-02-14T00:44:22.218Z,973.21
2018-02-14T00:45:22.137Z,973.27
2018-02-14T00:46:22.040Z,973.24
2018-02-14T00:47:21.963Z,973.23
2018-02-14T00:48:21.875Z,973.26
2018-02-14T00:49:21.792Z,973.27
2018-02-14T00:50:21.697Z,973.25
2018-02-14T00:51:21.620Z,973.30
2018-02-14T00:52:21.526Z,973.30
2018-02-14T00:53:21.446Z,973.33
2018-02-14T00:54:21.349Z,973.30
2018-02-14T00:55:21.271Z,973.32
2018-02-14T00:56:21.178Z,973.29
2018-02-14T00:57:21.101Z,973.30
2018-02-14T00:58:21.006Z,973.29
2018-02-14T00:59:20.930Z,973.31
2018-02-14T01:00:20.831Z,973.31
2018-02-14T01:01:20.755Z,973.32
2018-02-14T01:02:20.660Z,973.35
2018-02-14T01:03:20.591Z,973.35
2018-02-14T01:04:20.490Z,973.35
2018-02-14T01:05:20.409Z,973.36
2018-02-14T01:06:20.316Z,973.37
2018-02-14T01:07:20.237Z,973.40
2018-02-14T01:08:20.142Z,973.44
2018-02-14T01:09:20.066Z,973.44
2018-02-14T01:10:19.970Z,973.44
2018-02-14T01:11:19.894Z,973.42
2018-02-14T01:12:19.797Z,973.43
2018-02-14T01:13:19.727Z,973.45
2018-02-14T01:14:19.624Z,973.48
2018-02-14T01:15:19.544Z,973.49
2018-02-14T01:16:19.452Z,973.46
2018-02-14T01:17:19.377Z,973.45
2018-02-14T01:18:19.280Z,973.49
2018-02-14T01:19:19.201Z,973.47
2018-02-14T01:20:19.106Z,973.46
2018-02-14T01:21:19.030Z,973.47
2018-02-14T01:22:18.935Z,973.46
2018-02-14T01:23:18.855Z,973.44
2018-02-14T01:24:18.763Z,973.47
2018-02-14T01:25:18.688Z,973.45
2018-02-14T01:26:18.592Z,973.46
2018-02-14T01:27:18.509Z,973.47
2018-02-14T01:28:18.419Z,973.47
2018-02-14T01:29:18.342Z,973.44
2018-02-14T01:30:18.246Z,973.51
2018-02-14T01:31:18.169Z,973.50
2018-02-14T01:32:18.075Z,973.49
2018-02-14T01:33:17.995Z,973.51
2018-02-14T01:34:17.902Z,973.50
2018-02-14T01:35:17.824Z,973.52
2018-02-14T01:36:17.732Z,973.54
2018-02-14T01:37:17.649Z,973.56
2018-02-14T01:38:17.559Z,973.56
2018-02-14T01:39:17.481Z,973.56
2018-02-14T01:40:17.387Z,973.58
2018-02-14T01:41:17.305Z,973.58
2018-02-14T01:42:17.211Z,973.59
2018-02-14T01:43:17.133Z,973.57
2018-02-14T01:44:17.042Z,973.59
2018-02-14T01:45:16.964Z,973.61
2018-02-14T01:46:16.868Z,973.58
2018-02-14T01:47:16.791Z,973.58
2018-02-14T01:48:16.697Z,973.58
2018-02-14T01:49:16.619Z,973.61
2018-02-14T01:50:16.518Z,973.60
2018-02-14T01:51:16.442Z,973.62
2018-02-14T01:52:16.353Z,973.65
2018-02-14T01:53:16.270Z,973.62
2018-02-14T01:54:16.178Z,973.62
2018-02-14T01:55:16.101Z,973.63
2018-02-14T01:56:16.012Z,973.66
2018-02-14T01:57:15.928Z,973.66
2018-02-14T01:58:15.836Z,973.64
2018-02-14T01:59:15.756Z,973.65
2018-02-14T02:00:15.663Z,973.67
2018-02-14T02:01:15.586Z,973.67
2018-02-14T02:02:15.524Z,973.63
2018-02-14T02:03:15.412Z,973.67
2018-02-14T02:04:15.322Z,973.67
2018-02-14T02:05:15.241Z,973.67
2018-02-14T02:06:15.147Z,973.67
2018-02-14T02:07:15.067Z,973.65
2018-02-14T02:08:29.941Z,973.69
2018-02-14T02:09:14.888Z,973.64
2018-02-14T02:10:14.796Z,973.66
2018-02-14T02:11:14.745Z,973.67
2018-02-14T02:12:14.624Z,973.68
2018-02-14T02:13:14.548Z,973.70
2018-02-14T02:14:14.452Z,973.70
2018-02-14T02:15:14.374Z,973.68
2018-02-14T02:16:14.280Z,973.71
2018-02-14T02:17:14.202Z,973.73
2018-02-14T02:18:14.149Z,973.72
2018-02-14T02:19:14.028Z,973.76
2018-02-14T02:20:13.941Z,973.78
2018-02-14T02:21:13.860Z,973.79
2018-02-14T02:22:13.770Z,973.80
2018-02-14T02:23:13.688Z,973.79
2018-02-14T02:24:13.593Z,973.81
2018-02-14T02:25:13.515Z,973.87
2018-02-14T02:26:13.426Z,973.82
2018-02-14T02:27:13.346Z,973.81
2018-02-14T02:28:13.250Z,973.84
2018-02-14T02:29:13.173Z,973.86
2018-02-14T02:30:13.077Z,973.83
2018-02-14T02:31:12.999Z,973.87
2018-02-14T02:32:12.909Z,973.84
2018-02-14T02:33:12.831Z,973.84
2018-02-14T02:34:12.735Z,973.84
2018-02-14T02:35:12.654Z,973.86
2018-02-14T02:36:12.560Z,973.85
2018-02-14T02:37:12.482Z,973.86
2018-02-14T02:38:12.385Z,973.87
2018-02-14T02:39:12.310Z,973.87
2018-02-14T02:40:12.219Z,973.87
2018-02-14T02:41:12.136Z,973.90
2018-02-14T02:42:12.042Z,973.89
2018-02-14T02:43:11.966Z,973.92
2018-02-14T02:44:11.870Z,973.89
2018-02-14T02:45:11.791Z,973.93
2018-02-14T02:46:11.695Z,973.91
2018-02-14T02:47:11.619Z,973.90
2018-02-14T02:48:11.522Z,973.92
2018-02-14T02:49:11.452Z,973.91
2018-02-14T02:50:11.354Z,973.89
2018-02-14T02:51:11.277Z,973.92
2018-02-14T02:52:11.181Z,973.90
2018-02-14T02:53:11.103Z,973.96
2018-02-14T02:54:11.004Z,973.93
2018-02-14T02:55:10.929Z,973.90
2018-02-14T02:56:10.833Z,973.93
2018-02-14T02:57:10.756Z,973.91
2018-02-14T02:58:10.664Z,973.94
2018-02-14T02:59:10.589Z,973.96
2018-02-14T03:00:10.488Z,973.97
2018-02-14T03:01:10.415Z,973.97
2018-02-14T03:02:10.317Z,974.00
2018-02-14T03:03:10.237Z,974.01
2018-02-14T03:04:10.143Z,973.99
2018-02-14T03:05:10.065Z,973.99
2018-02-14T03:06:09.970Z,974.01
2018-02-14T03:07:09.892Z,974.00
2018-02-14T03:08:09.799Z,973.99
2018-02-14T03:09:09.725Z,973.99
2018-02-14T03:10:09.622Z,974.00
2018-02-14T03:11:09.547Z,974.00
2018-02-14T03:12:09.454Z,974.02
2018-02-14T03:13:09.371Z,974.00
2018-02-14T03:14:09.280Z,973.99
2018-02-14T03:15:09.200Z,973.98
2018-02-14T03:16:09.106Z,974.00
2018-02-14T03:17:09.029Z,974.02
2018-02-14T03:18:08.935Z,973.99
2018-02-14T03:19:08.854Z,974.00
2018-02-14T03:20:08.758Z,974.01
2018-02-14T03:21:08.686Z,974.00
2018-02-14T03:22:08.585Z,974.02
2018-02-14T03:23:08.509Z,974.05
2018-02-14T03:24:08.415Z,974.05
2018-02-14T03:25:08.338Z,974.11
2018-02-14T03:26:08.241Z,974.08
2018-02-14T03:27:08.168Z,974.06
2018-02-14T03:28:08.070Z,974.08
2018-02-14T03:29:07.993Z,974.11
2018-02-14T03:30:07.899Z,974.11
2018-02-14T03:31:07.817Z,974.10
2018-02-14T03:32:07.724Z,974.07
2018-02-14T03:33:07.644Z,974.11
2018-02-14T03:34:07.550Z,974.12
2018-02-14T03:35:07.472Z,974.11
2018-02-14T03:36:07.374Z,974.10
2018-02-14T03:37:07.301Z,974.11
2018-02-14T03:38:07.203Z,974.14
2018-02-14T03:39:07.126Z,974.13
2018-02-14T03:40:07.032Z,974.14
2018-02-14T03:41:06.956Z,974.18
2018-02-14T03:42:06.860Z,974.20
2018-02-14T03:43:06.785Z,974.16
2018-02-14T03:44:06.686Z,974.17
2018-02-14T03:45:06.643Z,974.22
2018-02-14T03:46:06.512Z,974.22
2018-02-14T03:47:06.435Z,974.22
2018-02-14T03:48:06.341Z,974.24
2018-02-14T03:49:06.264Z,974.30
2018-02-14T03:50:06.166Z,974.31
2018-02-14T03:51:06.087Z,974.35
2018-02-14T03:52:05.992Z,974.35
2018-02-14T03:53:05.919Z,974.39
2018-02-14T03:54:05.823Z,974.41
2018-02-14T03:55:05.739Z,974.42
2018-02-14T03:56:05.646Z,974.41
2018-02-14T03:57:05.570Z,974.41
2018-02-14T03:58:05.470Z,974.43
2018-02-14T03:59:05.399Z,974.43
2018-02-14T04:00:05.302Z,974.44
2018-02-14T04:01:05.225Z,974.41
2018-02-14T04:02:05.129Z,974.44
2018-02-14T04:03:05.047Z,974.45
2018-02-14T04:04:04.954Z,974.47
2018-02-14T04:05:04.879Z,974.47
2018-02-14T04:06:04.782Z,974.50
2018-02-14T04:07:04.702Z,974.52
2018-02-14T04:08:04.608Z,974.50
2018-02-14T04:09:04.529Z,974.48
2018-02-14T04:10:04.433Z,974.52
2018-02-14T04:11:04.355Z,974.50
2018-02-14T04:12:04.261Z,974.50
2018-02-14T04:13:04.183Z,974.53
2018-02-14T04:14:04.088Z,974.51
2018-02-14T04:15:04.012Z,974.54
2018-02-14T04:16:03.934Z,974.53
2018-02-14T04:17:03.842Z,974.53
2018-02-14T04:18:03.745Z,974.56
2018-02-14T04:19:03.661Z,974.55
2018-02-14T04:20:03.566Z,974.58
2018-02-14T04:21:03.491Z,974.61
2018-02-14T04:22:03.396Z,974.58
2018-02-14T04:23:03.317Z,974.58
2018-02-14T04:24:03.226Z,974.65
2018-02-14T04:25:03.147Z,974.65
2018-02-14T04:26:03.049Z,974.70
2018-02-14T04:27:02.977Z,974.71
2018-02-14T04:28:02.874Z,974.71
2018-02-14T04:29:02.800Z,974.75
2018-02-14T04:30:03.387Z,974.77
2018-02-14T04:31:02.622Z,974.80
2018-02-14T04:32:02.530Z,974.81
2018-02-14T04:33:02.462Z,974.86
2018-02-14T04:34:02.356Z,974.86
2018-02-14T04:35:02.278Z,974.89
2018-02-14T04:36:02.191Z,974.91
2018-02-14T04:37:03.103Z,974.91
2018-02-14T04:38:02.007Z,974.92
2018-02-14T04:39:01.934Z,974.91
2018-02-14T04:40:01.838Z,974.92
2018-02-14T04:41:01.755Z,974.96
2018-02-14T04:42:01.661Z,974.93
2018-02-14T04:43:01.586Z,974.97
2018-02-14T04:44:01.490Z,974.95
2018-02-14T04:45:01.414Z,974.94
2018-02-14T04:46:01.315Z,974.95
2018-02-14T04:47:01.238Z,974.95
2018-02-14T04:48:01.142Z,974.93
2018-02-14T04:49:01.064Z,974.97
2018-02-14T04:50:00.968Z,974.93
2018-02-14T04:51:00.888Z,975.00
2018-02-14T04:52:00.796Z,974.99
2018-02-14T04:53:00.714Z,975.03
2018-02-14T04:54:00.618Z,974.98
2018-02-14T04:55:00.546Z,974.97
2018-02-14T04:56:00.454Z,974.99
2018-02-14T04:57:00.370Z,975.02
2018-02-14T04:58:00.276Z,975.03
2018-02-14T04:59:00.262Z,975.00
2018-02-14T05:00:00.106Z,975.03
2018-02-14T05:01:00.025Z,975.05
2018-02-14T05:01:59.931Z,975.06
2018-02-14T05:02:59.880Z,975.05
2018-02-14T05:03:59.750Z,975.08
2018-02-14T05:04:59.685Z,975.10
2018-02-14T05:05:59.580Z,975.13
2018-02-14T05:07:00.548Z,975.14
2018-02-14T05:07:59.407Z,975.15
2018-02-14T05:08:59.327Z,975.17
2018-02-14T05:09:59.233Z,975.20
2018-02-14T05:10:59.214Z,975.18
2018-02-14T05:11:59.061Z,975.24
2018-02-14T05:12:59.024Z,975.19
2018-02-14T05:13:58.881Z,975.23
2018-02-14T05:14:58.805Z,975.27
2018-02-14T05:15:58.711Z,975.26
2018-02-14T05:16:58.635Z,975.23
2018-02-14T05:17:58.538Z,975.27
2018-02-14T05:18:58.458Z,975.30
2018-02-14T05:19:58.363Z,975.29
2018-02-14T05:20:58.359Z,975.27
2018-02-14T05:21:58.185Z,975.31
2018-02-14T05:22:58.159Z,975.36
2018-02-14T05:23:58.018Z,975.31
2018-02-14T05:24:57.974Z,975.36
2018-02-14T05:25:57.840Z,975.35
2018-02-14T05:26:57.781Z,975.37
2018-02-14T05:27:57.674Z,975.38
2018-02-14T05:28:57.693Z,975.38
2018-02-14T05:29:57.499Z,975.41
2018-02-14T05:30:57.416Z,975.44
2018-02-14T05:31:57.322Z,975.41
2018-02-14T05:32:57.308Z,975.43
2018-02-14T05:33:57.148Z,975.42
2018-02-14T05:34:57.117Z,975.42
2018-02-14T05:35:56.976Z,975.44
2018-02-14T05:36:56.925Z,975.48
2018-02-14T05:37:56.801Z,975.48
2018-02-14T05:38:56.722Z,975.49
2018-02-14T05:39:56.628Z,975.54
2018-02-14T05:40:56.645Z,975.57
2018-02-14T05:41:56.455Z,975.53
2018-02-14T05:42:56.454Z,975.58
2018-02-14T05:43:56.281Z,975.59
2018-02-14T05:44:56.262Z,975.58
2018-02-14T05:45:56.134Z,975.60
2018-02-14T05:46:56.067Z,975.61
2018-02-14T05:47:55.930Z,975.64
2018-02-14T05:48:55.872Z,975.67
2018-02-14T05:49:55.756Z,975.68
2018-02-14T05:50:55.791Z,975.68
2018-02-14T05:51:55.583Z,975.71
2018-02-14T05:52:55.594Z,975.67
2018-02-14T05:53:55.408Z,975.64
2018-02-14T05:54:55.403Z,975.70
2018-02-14T05:55:55.242Z,975.67
2018-02-14T05:56:55.212Z,975.66
2018-02-14T05:57:55.065Z,975.69
2018-02-14T05:58:55.019Z,975.66
2018-02-14T05:59:54.891Z,975.73
2018-02-14T06:00:54.834Z,975.71
2018-02-14T06:01:54.715Z,975.72
2018-02-14T06:02:54.738Z,975.72
2018-02-14T06:03:54.540Z,975.74
2018-02-14T06:04:54.548Z,975.78
2018-02-14T06:05:54.375Z,975.77
2018-02-14T06:06:54.356Z,975.77
2018-02-14T06:07:54.191Z,975.78
2018-02-14T06:08:54.162Z,975.77
2018-02-14T06:09:54.023Z,975.80
2018-02-14T06:10:53.974Z,975.79
2018-02-14T06:11:53.847Z,975.83
2018-02-14T06:12:53.781Z,975.83
2018-02-14T06:13:53.670Z,975.83
2018-02-14T06:14:53.690Z,975.85
2018-02-14T06:15:53.496Z,975.91
2018-02-14T06:16:53.503Z,975.89
2018-02-14T06:17:53.324Z,975.90
2018-02-14T06:18:53.307Z,975.91
2018-02-14T06:19:53.148Z,975.95
2018-02-14T06:20:53.115Z,975.97
2018-02-14T06:21:52.981Z,976.00
2018-02-14T06:22:52.925Z,976.03
2018-02-14T06:23:52.800Z,976.00
2018-02-14T06:24:52.732Z,976.02
2018-02-14T06:25:52.627Z,976.01
2018-02-14T06:26:52.644Z,976.04
2018-02-14T06:27:52.456Z,976.02
2018-02-14T06:28:52.371Z,976.09
2018-02-14T06:29:52.280Z,976.12
2018-02-14T06:30:52.260Z,976.09
2018-02-14T06:31:52.107Z,976.11
2018-02-14T06:32:52.066Z,976.11
2018-02-14T06:33:51.929Z,976.12
2018-02-14T06:34:51.856Z,976.10
2018-02-14T06:35:51.756Z,976.11
2018-02-14T06:36:51.678Z,976.13
2018-02-14T06:37:51.582Z,976.12
2018-02-14T06:38:51.504Z,976.14
2018-02-14T06:39:51.413Z,976.18
2018-02-14T06:40:51.327Z,976.18
2018-02-14T06:41:51.231Z,976.19
2018-02-14T06:42:51.212Z,976.22
2018-02-14T06:43:51.060Z,976.24
2018-02-14T06:44:51.027Z,976.26
2018-02-14T06:45:50.885Z,976.28
2018-02-14T06:46:50.806Z,976.30
2018-02-14T06:47:50.712Z,976.30
2018-02-14T06:48:50.638Z,976.30
2018-02-14T06:49:50.538Z,976.32
2018-02-14T06:50:50.462Z,976.32
2018-02-14T06:51:50.363Z,976.36
2018-02-14T06:52:50.280Z,976.36
2018-02-14T06:53:50.192Z,976.37
2018-02-14T06:54:50.111Z,976.38
2018-02-14T06:55:50.021Z,976.33
2018-02-14T06:56:49.940Z,976.39
2018-02-14T06:57:49.839Z,976.37
2018-02-14T06:58:49.792Z,976.41
2018-02-14T06:59:49.666Z,976.42
2018-02-14T07:00:49.585Z,976.42
2018-02-14T07:01:49.493Z,976.42
2018-02-14T07:02:49.416Z,976.44
2018-02-14T07:03:49.319Z,976.44
2018-02-14T07:04:49.250Z,976.49
2018-02-14T07:05:49.144Z,976.53
2018-02-14T07:06:49.171Z,976.57
2018-02-14T07:07:48.970Z,976.54
2018-02-14T07:08:48.973Z,976.57
2018-02-14T07:09:48.795Z,976.61
2018-02-14T07:10:48.797Z,976.67
2018-02-14T07:11:48.623Z,976.66
2018-02-14T07:12:48.595Z,976.72
2018-02-14T07:13:48.447Z,976.74
2018-02-14T07:14:48.406Z,976.74
2018-02-14T07:15:48.274Z,976.77
2018-02-14T07:16:48.217Z,976.77
2018-02-14T07:17:48.100Z,976.79
2018-02-14T07:18:48.124Z,976.79
2018-02-14T07:19:47.935Z,976.82
2018-02-14T07:20:47.933Z,976.81
2018-02-14T07:21:47.751Z,976.82
2018-02-14T07:22:47.746Z,976.80
2018-02-14T07:23:47.576Z,976.81
2018-02-14T07:24:47.551Z,976.82
2018-02-14T07:25:47.410Z,976.86
2018-02-14T07:26:47.367Z,976.81
2018-02-14T07:27:47.230Z,976.84
2018-02-14T07:28:47.166Z,976.83
2018-02-14T07:29:47.052Z,976.86
2018-02-14T07:30:47.077Z,976.86
2018-02-14T07:31:46.882Z,976.89
2018-02-14T07:32:46.887Z,976.92
2018-02-14T07:33:46.710Z,976.94
2018-02-14T07:34:46.695Z,976.94
2018-02-14T07:35:46.532Z,976.96
2018-02-14T07:36:46.505Z,976.98
2018-02-14T07:37:46.360Z,976.98
2018-02-14T07:38:46.314Z,977.01
2018-02-14T07:39:46.190Z,977.00
2018-02-14T07:40:46.122Z,976.99
2018-02-14T07:41:46.014Z,976.98
2018-02-14T07:42:46.037Z,976.99
2018-02-14T07:43:45.844Z,977.00
2018-02-14T07:44:45.840Z,976.97
2018-02-14T07:45:45.668Z,977.02
2018-02-14T07:46:45.654Z,977.02
2018-02-14T07:47:45.500Z,977.03
2018-02-14T07:48:45.462Z,977.05
2018-02-14T07:49:45.324Z,977.09
2018-02-14T07:50:45.272Z,977.07
2018-02-14T07:51:45.153Z,977.08
2018-02-14T07:52:45.182Z,977.05
2018-02-14T07:53:44.980Z,977.12
2018-02-14T07:54:44.990Z,977.16
2018-02-14T07:55:44.810Z,977.11
2018-02-14T07:56:44.801Z,977.13
2018-02-14T07:57:44.639Z,977.15
2018-02-14T07:58:44.610Z,977.15
2018-02-14T07:59:44.468Z,977.20
2018-02-14T08:00:44.418Z,977.21
2018-02-14T08:01:44.300Z,977.16
2018-02-14T08:02:44.330Z,977.20
2018-02-14T08:03:44.124Z,977.19
2018-02-14T08:04:44.136Z,977.19
2018-02-14T08:05:43.954Z,977.21
2018-02-14T08:06:43.946Z,977.19
2018-02-14T08:07:43.785Z,977.20
2018-02-14T08:08:43.755Z,977.17
2018-02-14T08:09:43.616Z,977.22
2018-02-14T08:10:43.565Z,977.21
2018-02-14T08:11:43.446Z,977.22
2018-02-14T08:12:43.475Z,977.25
2018-02-14T08:13:43.272Z,977.28
2018-02-14T08:14:43.287Z,977.22
2018-02-14T08:15:43.110Z,977.28
2018-02-14T08:16:43.092Z,977.30
2018-02-14T08:17:42.934Z,977.28
2018-02-14T08:18:42.858Z,977.33
2018-02-14T08:19:42.775Z,977.30
2018-02-14T08:20:42.713Z,977.29
2018-02-14T08:21:42.603Z,977.30
2018-02-14T08:22:42.622Z,977.30
2018-02-14T08:23:42.435Z,977.30
2018-02-14T08:24:42.430Z,977.34
2018-02-14T08:25:42.263Z,977.36
2018-02-14T08:26:42.241Z,977.35
2018-02-14T08:27:42.093Z,977.38
2018-02-14T08:28:42.051Z,977.38
2018-02-14T08:29:41.925Z,977.38
2018-02-14T08:30:41.960Z,977.40
2018-02-14T08:31:41.758Z,977.40
2018-02-14T08:32:41.772Z,977.43
2018-02-14T08:33:41.594Z,977.46
2018-02-14T08:34:41.580Z,977.46
2018-02-14T08:35:41.424Z,977.46
2018-02-14T08:36:41.355Z,977.49
2018-02-14T08:37:41.257Z,977.48
2018-02-14T08:38:41.201Z,977.49
2018-02-14T08:39:41.088Z,977.53
2018-02-14T08:40:41.109Z,977.52
2018-02-14T08:41:40.927Z,977.55
2018-02-14T08:42:40.918Z,977.56
2018-02-14T08:43:40.799Z,977.57
2018-02-14T08:44:40.743Z,977.58
2018-02-14T08:45:40.595Z,977.60
2018-02-14T08:46:40.536Z,977.62
2018-02-14T08:47:40.428Z,977.58
2018-02-14T08:48:40.510Z,977.58
2018-02-14T08:49:40.263Z,977.61
2018-02-14T08:50:40.257Z,977.65
2018-02-14T08:51:40.100Z,977.64
2018-02-14T08:52:40.067Z,977.62
2018-02-14T08:53:39.936Z,977.69
2018-02-14T08:54:39.858Z,977.69
2018-02-14T08:55:39.768Z,977.68
2018-02-14T08:56:39.789Z,977.66
2018-02-14T08:57:39.599Z,977.69
2018-02-14T08:58:39.601Z,977.74
2018-02-14T08:59:39.438Z,977.77
2018-02-14T09:00:39.404Z,977.77
2018-02-14T09:01:39.279Z,977.78
2018-02-14T09:02:39.213Z,977.78
2018-02-14T09:03:39.111Z,977.81
2018-02-14T09:04:39.125Z,977.82
2018-02-14T09:05:38.944Z,977.79
2018-02-14T09:06:38.932Z,977.78
2018-02-14T09:07:38.782Z,977.78
2018-02-14T09:08:38.742Z,977.78
2018-02-14T09:09:38.615Z,977.80
2018-02-14T09:10:38.650Z,977.81
2018-02-14T09:11:38.452Z,977.81
2018-02-14T09:12:38.463Z,977.85
2018-02-14T09:13:38.286Z,977.87
2018-02-14T09:14:38.204Z,977.87
2018-02-14T09:15:38.115Z,977.84
2018-02-14T09:16:38.083Z,977.86
2018-02-14T09:17:37.947Z,977.86
2018-02-14T09:18:37.896Z,977.89
2018-02-14T09:19:37.784Z,977.91
2018-02-14T09:20:37.803Z,977.92
2018-02-14T09:21:37.614Z,977.94
2018-02-14T09:22:37.609Z,977.92
2018-02-14T09:23:37.449Z,977.94
2018-02-14T09:24:37.422Z,977.92
2018-02-14T09:25:37.284Z,977.93
2018-02-14T09:26:37.230Z,977.91
2018-02-14T09:27:37.113Z,977.92
2018-02-14T09:28:37.143Z,977.93
2018-02-14T09:29:36.946Z,977.92
2018-02-14T09:30:36.954Z,977.88
2018-02-14T09:31:36.780Z,977.85
2018-02-14T09:32:36.781Z,977.88
2018-02-14T09:33:36.619Z,977.90
2018-02-14T09:34:36.564Z,977.89
2018-02-14T09:35:36.479Z,977.88
2018-02-14T09:36:36.477Z,977.90
2018-02-14T09:37:36.282Z,977.90
2018-02-14T09:38:36.290Z,977.89
2018-02-14T09:39:36.119Z,977.91
2018-02-14T09:40:36.094Z,977.97
2018-02-14T09:41:35.962Z,977.93
2018-02-14T09:42:35.915Z,977.94
2018-02-14T09:43:35.781Z,977.96
2018-02-14T09:44:35.824Z,977.98
2018-02-14T09:45:35.616Z,977.96
2018-02-14T09:46:35.622Z,977.98
2018-02-14T09:47:35.487Z,977.98
2018-02-14T09:48:35.432Z,978.00
2018-02-14T09:49:35.285Z,978.04
2018-02-14T09:50:35.243Z,978.03
2018-02-14T09:51:35.121Z,978.03
2018-02-14T09:52:35.157Z,978.02
2018-02-14T09:53:34.955Z,978.03
2018-02-14T09:54:34.965Z,978.08
2018-02-14T09:55:34.794Z,978.04
2018-02-14T09:56:34.769Z,978.04
2018-02-14T09:57:34.625Z,978.05
2018-02-14T09:58:34.585Z,978.07
2018-02-14T09:59:34.455Z,978.09
2018-02-14T10:00:34.493Z,978.10
2018-02-14T10:01:34.295Z,978.11
2018-02-14T10:02:34.302Z,978.14
2018-02-14T10:03:34.131Z,978.15
2018-02-14T10:04:34.111Z,978.14
2018-02-14T10:05:33.964Z,978.13
2018-02-14T10:06:33.925Z,978.11
2018-02-14T10:07:33.801Z,978.07
2018-02-14T10:08:33.832Z,978.14
2018-02-14T10:09:33.636Z,978.10
2018-02-14T10:10:33.640Z,978.16
2018-02-14T10:11:33.472Z,978.15
2018-02-14T10:12:33.451Z,978.17
2018-02-14T10:13:33.308Z,978.17
2018-02-14T10:14:33.258Z,978.14
2018-02-14T10:15:33.146Z,978.17
2018-02-14T10:16:33.177Z,978.13
2018-02-14T10:17:32.981Z,978.16
2018-02-14T10:18:32.982Z,978.18
2018-02-14T10:19:32.814Z,978.16
2018-02-14T10:20:32.787Z,978.17
2018-02-14T10:21:32.658Z,978.15
2018-02-14T10:22:32.595Z,978.15
2018-02-14T10:23:32.486Z,978.14
2018-02-14T10:24:32.412Z,978.16
2018-02-14T10:25:32.321Z,978.22
2018-02-14T10:26:32.316Z,978.18
2018-02-14T10:27:32.160Z,978.22
2018-02-14T10:28:32.126Z,978.23
2018-02-14T10:29:31.993Z,978.22
2018-02-14T10:30:31.934Z,978.23
2018-02-14T10:31:31.829Z,978.27
2018-02-14T10:32:31.849Z,978.27
2018-02-14T10:33:31.661Z,978.27
2018-02-14T10:34:31.654Z,978.27
2018-02-14T10:35:31.504Z,978.26
2018-02-14T10:36:31.467Z,978.26
2018-02-14T10:37:31.341Z,978.27
2018-02-14T10:38:31.377Z,978.28
2018-02-14T10:39:31.177Z,978.26
2018-02-14T10:40:31.184Z,978.28
2018-02-14T10:41:31.014Z,978.28
2018-02-14T10:42:30.994Z,978.28
2018-02-14T10:43:30.855Z,978.28
2018-02-14T10:44:30.806Z,978.29
2018-02-14T10:45:30.686Z,978.30
2018-02-14T10:46:30.614Z,978.28
2018-02-14T10:47:30.534Z,978.29
2018-02-14T10:48:30.523Z,978.28
2018-02-14T10:49:30.363Z,978.25
2018-02-14T10:50:30.331Z,978.26
2018-02-14T10:51:30.199Z,978.26
2018-02-14T10:52:30.142Z,978.26
2018-02-14T10:53:30.076Z,978.28
2018-02-14T10:54:30.053Z,978.25
2018-02-14T10:55:29.914Z,978.25
2018-02-14T10:56:29.862Z,978.22
2018-02-14T10:57:29.709Z,978.22
2018-02-14T10:58:29.670Z,978.20
2018-02-14T10:59:29.550Z,978.28
2018-02-14T11:00:29.482Z,978.23
2018-02-14T11:01:29.386Z,978.23
2018-02-14T11:02:29.390Z,978.22
2018-02-14T11:03:29.225Z,978.19
2018-02-14T11:04:29.200Z,978.19
2018-02-14T11:05:29.070Z,978.20
2018-02-14T11:06:29.009Z,978.22
2018-02-14T11:07:28.901Z,978.18
2018-02-14T11:08:28.917Z,978.17
2018-02-14T11:09:28.738Z,978.22
2018-02-14T11:10:28.728Z,978.20
2018-02-14T11:11:28.580Z,978.22
2018-02-14T11:12:28.535Z,978.20
2018-02-14T11:13:28.417Z,978.22
2018-02-14T11:14:28.343Z,978.21
2018-02-14T11:15:28.257Z,978.22
2018-02-14T11:16:28.257Z,978.23
2018-02-14T11:17:28.091Z,978.24
2018-02-14T11:18:28.066Z,978.22
2018-02-14T11:19:27.929Z,978.22
2018-02-14T11:20:27.876Z,978.22
2018-02-14T11:21:27.769Z,978.22
2018-02-14T11:22:27.817Z,978.20
2018-02-14T11:23:27.613Z,978.21
2018-02-14T11:24:27.596Z,978.20
2018-02-14T11:25:27.448Z,978.19
2018-02-14T11:26:27.405Z,978.19
2018-02-14T11:27:27.292Z,978.19
2018-02-14T11:28:27.316Z,978.16
2018-02-14T11:29:27.124Z,978.16
2018-02-14T11:30:27.123Z,978.20
2018-02-14T11:31:26.963Z,978.16
2018-02-14T11:32:26.935Z,978.19
2018-02-14T11:33:26.801Z,978.18
2018-02-14T11:34:26.747Z,978.22
2018-02-14T11:35:26.642Z,978.21
2018-02-14T11:36:26.654Z,978.21
2018-02-14T11:37:26.478Z,978.17
2018-02-14T11:38:26.463Z,978.17
2018-02-14T11:39:26.320Z,978.15
2018-02-14T11:40:26.275Z,978.18
2018-02-14T11:41:26.162Z,978.17
2018-02-14T11:42:26.184Z,978.19
2018-02-14T11:43:25.996Z,978.23
2018-02-14T11:44:25.994Z,978.19
2018-02-14T11:45:25.847Z,978.20
2018-02-14T11:46:25.801Z,978.18
2018-02-14T11:47:25.677Z,978.19
2018-02-14T11:48:25.713Z,978.18
2018-02-14T11:49:25.520Z,978.18
2018-02-14T11:50:25.538Z,978.17
2018-02-14T11:51:25.356Z,978.20
2018-02-14T11:52:25.331Z,978.22
2018-02-14T11:53:25.194Z,978.19
2018-02-14T11:54:25.140Z,978.20
2018-02-14T11:55:25.036Z,978.21
2018-02-14T11:56:25.052Z,978.21
2018-02-14T11:57:24.873Z,978.21
2018-02-14T11:58:24.859Z,978.22
2018-02-14T11:59:24.718Z,978.26
2018-02-14T12:00:24.670Z,978.23
2018-02-14T12:01:24.553Z,978.23
2018-02-14T12:02:24.581Z,978.24
2018-02-14T12:03:24.394Z,978.24
2018-02-14T12:04:24.390Z,978.23
2018-02-14T12:05:24.230Z,978.27
2018-02-14T12:06:24.199Z,978.19
2018-02-14T12:07:24.073Z,978.22
2018-02-14T12:08:24.105Z,978.21
2018-02-14T12:09:23.909Z,978.24
2018-02-14T12:10:23.920Z,978.27
2018-02-14T12:11:23.753Z,978.26
2018-02-14T12:12:23.728Z,978.26
2018-02-14T12:13:23.593Z,978.23
2018-02-14T12:14:23.539Z,978.24
2018-02-14T12:15:23.434Z,978.27
2018-02-14T12:16:23.455Z,978.21
2018-02-14T12:17:23.273Z,978.23
2018-02-14T12:18:23.257Z,978.21
2018-02-14T12:19:23.119Z,978.25
2018-02-14T12:20:23.067Z,978.28
2018-02-14T12:21:22.952Z,978.26
2018-02-14T12:22:22.979Z,978.20
2018-02-14T12:23:22.792Z,978.24
2018-02-14T12:24:22.791Z,978.25
2018-02-14T12:25:22.634Z,978.28
2018-02-14T12:26:22.596Z,978.26
2018-02-14T12:27:22.472Z,978.22